Time;durP1;ratioP1;P1;durP2;ratioP2;P2;SDS_P1;SDS_P2;PMS_P1;PMS_P2;Temp;Humidity;BMP_temperature;BMP_pressure;BME280_temperature;BME280_humidity;BME280_pressure;Samples;Min_cycle;Max_cycle;Signal;HPM_P1;HPM_P2
2024/04/06 00:01:51;;;;;;;11.30;10.60;;;;;;;13.77;72.78;145178.00;5131056;27;20193;-51
2024/04/06 00:04:17;;;;;;;10.80;10.20;;;;;;;13.68;74.00;145156.16;5131161;27;20201;-50
2024/04/06 00:06:44;;;;;;;11.97;10.80;;;;;;;13.64;73.56;145148.88;5131033;27;20325;-52
2024/04/06 00:09:10;;;;;;;11.00;10.30;;;;;;;13.65;74.40;145150.09;5130543;27;20220;-51
2024/04/06 00:11:37;;;;;;;11.07;10.33;;;;;;;13.72;74.26;145167.06;5130848;27;20265;-51
2024/04/06 00:14:03;;;;;;;11.10;10.47;;;;;;;13.72;74.13;145167.06;5130561;27;20253;-52
2024/04/06 00:16:29;;;;;;;11.10;10.40;;;;;;;13.69;73.17;145159.78;5130793;27;20340;-52
2024/04/06 00:18:55;;;;;;;11.47;10.67;;;;;;;13.70;74.25;145162.22;5130735;27;20204;-51
2024/04/06 00:21:21;;;;;;;10.97;10.17;;;;;;;13.69;74.05;145158.59;5130750;27;20253;-51
2024/04/06 00:23:46;;;;;;;10.77;10.03;;;;;;;13.61;74.24;145141.56;5130911;27;20257;-52
2024/04/06 00:26:13;;;;;;;11.10;10.30;;;;;;;13.51;75.33;145116.13;5130611;27;20212;-50
2024/04/06 00:28:39;;;;;;;10.80;10.20;;;;;;;13.43;75.27;145097.94;5130481;27;20208;-51
2024/04/06 00:31:06;;;;;;;11.07;10.30;;;;;;;13.44;75.29;145099.16;5130501;27;20228;-51
2024/04/06 00:33:31;;;;;;;11.43;10.50;;;;;;;13.43;75.79;145096.72;5130466;27;20200;-52
2024/04/06 00:35:58;;;;;;;11.30;10.40;;;;;;;13.41;75.72;145093.09;5130434;27;20203;-53
2024/04/06 00:38:23;;;;;;;10.87;10.20;;;;;;;13.43;75.74;145096.72;5130433;27;20487;-52
2024/04/06 00:40:49;;;;;;;10.27;9.77;;;;;;;13.37;75.94;145082.16;5130208;27;20719;-50
2024/04/06 00:43:15;;;;;;;10.60;9.97;;;;;;;13.35;76.41;145077.31;5130232;27;20257;-51
2024/04/06 00:45:44;;;;;;;10.80;10.10;;;;;;;13.26;76.88;145056.69;5130146;27;20200;-51
2024/04/06 00:48:10;;;;;;;10.33;9.70;;;;;;;13.23;76.68;145048.19;5129990;27;20205;-52
2024/04/06 00:50:38;;;;;;;10.87;10.17;;;;;;;13.22;76.22;145047.00;5130186;27;20417;-51
2024/04/06 00:53:03;;;;;;;10.90;10.20;;;;;;;13.17;76.70;145034.84;5130012;27;20205;-51
2024/04/06 00:55:29;;;;;;;11.10;10.40;;;;;;;13.13;76.31;145023.94;5130229;27;20537;-51
2024/04/06 00:57:55;;;;;;;10.30;9.70;;;;;;;13.06;77.47;145008.13;5129911;27;20243;-52
2024/04/06 01:00:22;;;;;;;10.93;10.20;;;;;;;13.02;77.40;144998.44;5130365;27;20220;-51
2024/04/06 01:02:48;;;;;;;11.03;10.20;;;;;;;12.98;77.67;144989.94;5129881;27;20619;-50
2024/04/06 01:05:15;;;;;;;11.30;10.40;;;;;;;12.93;77.46;144976.59;5129428;27;20742;-51
2024/04/06 01:07:44;;;;;;;10.53;9.93;;;;;;;12.85;77.54;144958.44;5129984;27;20208;-51
2024/04/06 01:10:10;;;;;;;11.20;10.50;;;;;;;12.81;77.80;144947.53;5129732;27;20221;-55
2024/04/06 01:12:36;;;;;;;10.77;9.97;;;;;;;12.73;77.29;144928.13;5130140;27;20204;-52
2024/04/06 01:15:02;;;;;;;11.00;10.20;;;;;;;12.74;76.92;144930.53;5129556;27;20232;-51
2024/04/06 01:17:28;;;;;;;10.70;10.00;;;;;;;12.67;77.84;144913.59;5130224;27;20868;-52
2024/04/06 01:19:56;;;;;;;10.80;10.13;;;;;;;12.75;77.99;144932.97;5129829;27;20739;-51
2024/04/06 01:22:21;;;;;;;11.37;10.43;;;;;;;12.71;78.28;144924.47;5129716;27;20196;-51
2024/04/06 01:24:49;;;;;;;11.37;10.40;;;;;;;12.70;78.59;144920.88;5129732;27;20257;-51
2024/04/06 01:27:14;;;;;;;10.93;10.27;;;;;;;12.65;78.30;144909.91;5129709;27;20297;-51
2024/04/06 01:29:41;;;;;;;10.57;9.87;;;;;;;12.59;78.96;144894.19;5129692;27;20227;-51
2024/04/06 01:32:06;;;;;;;10.77;10.07;;;;;;;12.52;79.08;144877.19;5129377;27;20242;-51
2024/04/06 01:34:33;;;;;;;10.90;10.20;;;;;;;12.43;79.18;144857.81;5129446;27;20208;-51
2024/04/06 01:36:58;;;;;;;10.93;10.23;;;;;;;12.39;79.41;144846.91;5129572;27;20671;-52
2024/04/06 01:39:24;;;;;;;10.60;9.90;;;;;;;12.35;79.62;144838.44;5129656;27;20226;-51
2024/04/06 01:41:51;;;;;;;10.67;10.07;;;;;;;12.31;79.59;144827.53;5129312;27;20660;-51
2024/04/06 01:44:17;;;;;;;10.57;9.90;;;;;;;12.32;79.73;144831.16;5129460;27;20201;-51
2024/04/06 01:46:43;;;;;;;10.30;9.70;;;;;;;12.31;80.47;144828.75;5129763;27;20200;-51
2024/04/06 01:49:09;;;;;;;10.47;9.83;;;;;;;12.26;80.61;144815.41;5129451;27;20227;-51
2024/04/06 01:51:35;;;;;;;10.70;10.10;;;;;;;12.20;81.29;144800.88;5129518;27;20200;-51
2024/04/06 01:54:01;;;;;;;10.43;9.83;;;;;;;12.16;81.15;144792.38;5129382;27;20197;-53
2024/04/06 01:56:28;;;;;;;10.60;9.70;;;;;;;12.21;80.43;144804.50;5129482;27;20257;-51
2024/04/06 01:58:56;;;;;;;10.50;9.80;;;;;;;12.16;80.92;144792.38;5129217;27;20215;-54
2024/04/06 02:01:21;;;;;;;10.67;9.70;;;;;;;12.13;81.39;144783.94;5129390;27;20204;-52
2024/04/06 02:03:48;;;;;;;10.13;9.53;;;;;;;12.07;81.12;144770.59;5129362;27;20250;-50
2024/04/06 02:06:13;;;;;;;11.00;10.20;;;;;;;12.05;81.30;144764.53;5129229;27;20197;-51
2024/04/06 02:08:40;;;;;;;11.27;10.37;;;;;;;12.04;81.60;144762.09;5129176;27;20254;-51
2024/04/06 02:11:05;;;;;;;10.67;9.97;;;;;;;11.98;81.65;144748.78;5129059;27;20700;-51
2024/04/06 02:13:32;;;;;;;10.57;9.87;;;;;;;11.95;82.11;144741.50;5129036;27;20201;-52
2024/04/06 02:15:59;;;;;;;10.23;9.63;;;;;;;11.96;81.10;144743.94;5129287;27;20196;-51
2024/04/06 02:18:25;;;;;;;10.07;9.37;;;;;;;11.88;81.30;144724.56;5133101;27;20208;-51
2024/04/06 02:20:52;;;;;;;10.60;9.90;;;;;;;11.85;82.68;144717.28;5132956;27;20201;-52
2024/04/06 02:23:18;;;;;;;10.37;9.73;;;;;;;11.88;81.90;144725.75;5133118;27;20211;-51
2024/04/06 02:25:43;;;;;;;10.20;9.60;;;;;;;11.83;82.45;144713.63;5133089;27;20292;-51
2024/04/06 02:28:10;;;;;;;10.77;10.00;;;;;;;11.72;82.79;144686.97;5132631;27;20654;-51
2024/04/06 02:30:37;;;;;;;10.80;9.97;;;;;;;11.77;82.81;144697.91;5132822;27;20646;-51
2024/04/06 02:33:05;;;;;;;10.30;9.70;;;;;;;11.73;83.09;144689.41;5132845;27;20211;-51
2024/04/06 02:35:30;;;;;;;10.10;9.50;;;;;;;11.69;82.64;144678.53;5132865;27;20249;-52
2024/04/06 02:37:57;;;;;;;10.10;9.50;;;;;;;11.65;82.70;144670.00;5132682;27;20200;-51
2024/04/06 02:40:22;;;;;;;10.23;9.63;;;;;;;11.67;83.13;144673.59;5132689;27;20224;-52
2024/04/06 02:42:49;;;;;;;10.40;9.73;;;;;;;11.65;82.87;144668.78;5132542;27;20793;-51
2024/04/06 02:45:14;;;;;;;10.33;9.53;;;;;;;11.73;82.85;144688.19;5132768;27;20277;-53
2024/04/06 02:47:41;;;;;;;9.87;9.27;;;;;;;11.75;82.70;144694.25;5132611;27;20672;-51
2024/04/06 02:50:10;;;;;;;10.30;9.70;;;;;;;11.74;83.25;144691.84;5132297;27;20272;-51
2024/04/06 02:52:36;;;;;;;10.50;9.80;;;;;;;11.82;82.54;144710.00;5132414;27;20732;-51
2024/04/06 02:55:04;;;;;;;10.60;9.93;;;;;;;11.91;82.71;144731.84;5132431;27;20204;-52
2024/04/06 02:57:31;;;;;;;10.40;9.80;;;;;;;11.94;82.47;144739.06;5132665;27;20543;-51
2024/04/06 02:59:56;;;;;;;10.50;9.90;;;;;;;11.96;82.86;144742.72;5132242;27;20200;-50
2024/04/06 03:02:24;;;;;;;10.97;10.27;;;;;;;11.94;82.23;144739.06;5132220;27;20249;-51
2024/04/06 03:04:49;;;;;;;9.80;9.20;;;;;;;12.00;82.47;144752.41;5132025;27;20257;-50
2024/04/06 03:07:17;;;;;;;10.50;9.90;;;;;;;11.95;82.62;144740.28;5132258;27;20596;-53
2024/04/06 03:09:43;;;;;;;10.67;9.97;;;;;;;11.89;82.29;144728.19;5132092;27;20232;-50
2024/04/06 03:12:09;;;;;;;10.63;9.93;;;;;;;11.86;82.81;144720.91;5132121;27;20212;-50
2024/04/06 03:14:34;;;;;;;10.23;9.63;;;;;;;11.80;82.92;144705.19;5131863;27;20229;-51
2024/04/06 03:17:02;;;;;;;9.63;9.13;;;;;;;11.78;83.32;144700.31;5132021;27;20344;-51
2024/04/06 03:19:29;;;;;;;10.23;9.63;;;;;;;11.73;83.29;144688.19;5131999;27;20235;-53
2024/04/06 03:21:55;;;;;;;10.87;10.20;;;;;;;11.70;83.41;144680.94;5131954;27;20225;-52
2024/04/06 03:24:22;;;;;;;9.93;9.43;;;;;;;11.73;84.70;144688.19;5131845;27;20655;-51
2024/04/06 03:26:48;;;;;;;10.67;9.97;;;;;;;11.69;84.57;144678.53;5131449;27;20663;-52
2024/04/06 03:29:14;;;;;;;10.10;9.50;;;;;;;11.65;84.78;144670.00;5131537;27;20955;-52
2024/04/06 03:31:40;;;;;;;11.10;10.33;;;;;;;11.60;85.10;144656.66;5131739;27;20668;-52
2024/04/06 03:34:05;;;;;;;9.70;9.07;;;;;;;11.56;84.96;144648.19;5131539;27;20200;-51
2024/04/06 03:36:32;;;;;;;9.83;9.33;;;;;;;11.55;85.71;144644.56;5131786;27;20230;-51
2024/04/06 03:38:58;;;;;;;10.70;10.00;;;;;;;11.50;85.86;144632.47;5131682;27;20200;-51
2024/04/06 03:41:26;;;;;;;10.80;10.10;;;;;;;11.47;85.78;144626.41;5131623;27;20200;-51
2024/04/06 03:43:52;;;;;;;10.47;9.77;;;;;;;11.43;86.07;144616.72;5131187;27;20200;-51
2024/04/06 03:46:18;;;;;;;10.50;9.70;;;;;;;11.40;85.80;144608.22;5131580;27;20212;-52
2024/04/06 03:48:44;;;;;;;9.87;9.27;;;;;;;11.34;86.14;144593.72;5131629;27;20694;-56
2024/04/06 03:51:09;;;;;;;9.67;9.10;;;;;;;11.31;86.41;144588.84;5130984;27;20247;-51
2024/04/06 03:53:38;;;;;;;9.67;9.07;;;;;;;11.22;86.98;144565.88;5131146;27;20680;-51
2024/04/06 03:56:04;;;;;;;9.97;9.37;;;;;;;11.21;86.78;144564.63;5131208;27;20204;-52
2024/04/06 03:58:32;;;;;;;10.00;9.30;;;;;;;11.17;87.23;144554.94;5131205;27;20196;-51
2024/04/06 04:00:58;;;;;;;10.43;9.77;;;;;;;11.17;86.79;144553.75;5131226;27;20197;-52
2024/04/06 04:03:24;;;;;;;9.63;9.03;;;;;;;11.15;87.00;144548.88;5131157;27;20340;-53
2024/04/06 04:05:50;;;;;;;10.23;9.53;;;;;;;11.13;86.59;144545.28;5130902;27;20200;-52
2024/04/06 04:08:16;;;;;;;10.17;9.47;;;;;;;11.16;86.64;144552.53;5130969;27;20253;-51
2024/04/06 04:10:42;;;;;;;10.60;9.70;;;;;;;11.12;86.21;144541.66;5130828;27;20258;-52
2024/04/06 04:13:09;;;;;;;10.17;9.43;;;;;;;11.14;86.28;144547.72;5130728;27;20216;-51
2024/04/06 04:15:36;;;;;;;10.10;9.43;;;;;;;11.09;86.77;144535.56;5130628;27;20239;-51
2024/04/06 04:18:03;;;;;;;10.40;9.80;;;;;;;11.05;87.11;144525.91;5130799;27;20212;-51
2024/04/06 04:20:29;;;;;;;9.87;9.33;;;;;;;11.03;87.40;144519.84;5130763;27;20694;-51
2024/04/06 04:22:55;;;;;;;10.27;9.60;;;;;;;11.02;87.27;144518.63;5130757;27;20192;-50
2024/04/06 04:25:21;;;;;;;10.10;9.40;;;;;;;11.02;87.17;144518.63;5130890;27;20202;-51
2024/04/06 04:27:47;;;;;;;10.40;9.60;;;;;;;10.99;86.84;144511.38;5130858;27;20204;-53
2024/04/06 04:30:15;;;;;;;10.10;9.30;;;;;;;11.03;86.80;144521.06;5130477;27;20228;-51
2024/04/06 04:32:43;;;;;;;9.83;9.30;;;;;;;11.01;86.82;144515.03;5130639;27;20287;-51
2024/04/06 04:35:08;;;;;;;10.47;9.77;;;;;;;10.99;86.78;144511.38;5130285;27;20207;-53
2024/04/06 04:37:35;;;;;;;10.03;9.43;;;;;;;10.97;87.74;144505.31;5130534;27;20200;-51
2024/04/06 04:40:00;;;;;;;9.97;9.37;;;;;;;10.93;87.99;144496.84;5129715;27;20734;-50
2024/04/06 04:42:26;;;;;;;10.23;9.43;;;;;;;10.95;88.28;144501.72;5130666;27;20204;-50
2024/04/06 04:44:53;;;;;;;9.73;9.20;;;;;;;10.95;88.20;144500.50;5130156;27;20851;-50
2024/04/06 04:47:19;;;;;;;9.20;8.50;;;;;;;10.91;88.30;144490.78;5130276;27;20209;-52
2024/04/06 04:49:46;;;;;;;9.97;9.37;;;;;;;10.92;88.41;144493.22;5129859;27;20296;-51
2024/04/06 04:52:12;;;;;;;10.13;9.20;;;;;;;10.91;88.39;144492.00;5130080;27;20683;-52
2024/04/06 04:54:38;;;;;;;9.60;8.90;;;;;;;10.93;88.15;144496.84;5130336;27;20468;-51
2024/04/06 04:57:04;;;;;;;10.20;9.50;;;;;;;10.92;87.87;144494.44;5130016;27;20704;-52
2024/04/06 04:59:31;;;;;;;9.57;8.87;;;;;;;10.99;87.48;144511.38;5130618;27;20278;-50
2024/04/06 05:01:56;;;;;;;9.80;9.20;;;;;;;11.07;86.99;144530.72;5129904;27;20206;-52
2024/04/06 05:04:22;;;;;;;10.60;9.90;;;;;;;11.11;86.87;144539.22;5130082;27;20201;-52
2024/04/06 05:06:49;;;;;;;9.40;8.70;;;;;;;11.12;87.23;144542.84;5129995;27;20204;-51
2024/04/06 05:09:16;;;;;;;10.27;9.37;;;;;;;11.18;87.22;144557.38;5129876;27;20581;-55
2024/04/06 05:11:42;;;;;;;8.93;8.43;;;;;;;11.23;87.07;144569.47;5129831;27;20249;-51
2024/04/06 05:14:09;;;;;;;9.80;9.10;;;;;;;11.29;86.69;144582.78;5127500;27;20951;-50
2024/04/06 05:16:34;;;;;;;10.00;9.23;;;;;;;11.38;85.98;144604.59;5129637;27;20215;-50
2024/04/06 05:19:02;;;;;;;9.87;9.20;;;;;;;11.45;85.47;144621.53;5129760;27;20200;-51
2024/04/06 05:21:28;;;;;;;10.00;9.37;;;;;;;11.56;84.78;144646.97;5129618;27;20193;-51
2024/04/06 05:23:55;;;;;;;9.63;8.93;;;;;;;11.62;84.93;144661.50;5129522;27;20204;-51
2024/04/06 05:26:22;;;;;;;9.93;9.13;;;;;;;11.70;84.58;144682.16;5129779;27;20209;-52
2024/04/06 05:28:48;;;;;;;9.20;8.70;;;;;;;11.87;83.67;144722.13;5129344;27;20253;-50
2024/04/06 05:31:14;;;;;;;10.23;9.63;;;;;;;11.98;82.52;144748.78;5129588;27;20235;-50
2024/04/06 05:33:40;;;;;;;9.77;9.13;;;;;;;12.14;81.20;144786.31;5129526;27;20204;-51
2024/04/06 05:36:08;;;;;;;9.60;8.63;;;;;;;12.29;80.06;144823.91;5129011;27;20204;-52
2024/04/06 05:38:34;;;;;;;9.80;9.20;;;;;;;12.40;79.84;144850.53;5129277;27;20668;-51
2024/04/06 05:41:01;;;;;;;9.80;9.13;;;;;;;12.55;80.58;144885.69;5129762;27;20203;-52
2024/04/06 05:43:29;;;;;;;9.73;9.07;;;;;;;12.65;80.37;144909.91;5129774;27;20691;-51
2024/04/06 05:46:00;;;;;;;10.37;9.57;;;;;;;12.68;80.57;144915.97;5129505;27;20248;-52
2024/04/06 05:48:26;;;;;;;9.37;8.77;;;;;;;12.84;80.43;144954.81;5129661;27;20775;-52
2024/04/06 05:50:52;;;;;;;9.20;8.60;;;;;;;12.97;79.47;144987.53;5131014;27;20515;-52
2024/04/06 05:53:17;;;;;;;9.80;9.10;;;;;;;13.13;78.96;145025.16;5133768;27;20261;-52
2024/04/06 05:55:44;;;;;;;9.03;8.53;;;;;;;13.26;79.74;145055.47;5133704;27;20204;-50
2024/04/06 05:58:12;;;;;;;9.93;9.13;;;;;;;13.42;79.23;145094.25;5133472;27;20444;-51
2024/04/06 06:00:39;;;;;;;9.67;9.00;;;;;;;13.62;78.13;145142.81;5133613;27;20253;-51
2024/04/06 06:03:04;;;;;;;10.03;9.43;;;;;;;13.98;78.04;145230.16;5133471;27;20204;-51
2024/04/06 06:05:30;;;;;;;9.33;8.73;;;;;;;14.39;75.68;145327.28;5133610;27;20201;-51
2024/04/06 06:07:56;;;;;;;9.83;9.23;;;;;;;14.67;74.94;145395.28;5133350;27;20260;-51
2024/04/06 06:10:22;;;;;;;10.23;9.43;;;;;;;14.88;69.50;145445.03;5133285;27;20240;-52
2024/04/06 06:12:48;;;;;;;9.30;8.70;;;;;;;15.07;70.30;145492.41;5133214;27;20212;-51
2024/04/06 06:15:16;;;;;;;10.73;9.70;;;;;;;15.12;67.51;145504.53;5133117;27;20220;-51
2024/04/06 06:17:41;;;;;;;10.07;9.43;;;;;;;15.27;66.66;145540.94;5133238;27;20253;-52
2024/04/06 06:20:08;;;;;;;10.30;9.60;;;;;;;15.35;65.55;145559.22;5133144;27;20204;-52
2024/04/06 06:22:33;;;;;;;10.60;9.90;;;;;;;15.60;64.99;145618.78;5133303;27;20205;-51
2024/04/06 06:25:00;;;;;;;10.50;9.80;;;;;;;15.84;63.91;145678.31;5133249;27;20731;-51
2024/04/06 06:27:26;;;;;;;9.87;9.27;;;;;;;16.16;63.26;145753.63;5132969;27;20274;-51
2024/04/06 06:29:52;;;;;;;10.40;9.80;;;;;;;16.49;63.31;145833.88;5132893;27;20204;-52
2024/04/06 06:32:19;;;;;;;10.67;9.87;;;;;;;16.86;60.71;145923.88;5133150;27;20327;-52
2024/04/06 06:34:46;;;;;;;10.13;9.30;;;;;;;17.37;59.14;146046.75;5131753;27;20211;-52
2024/04/06 06:37:11;;;;;;;10.63;9.80;;;;;;;18.62;56.24;146347.44;5132639;27;20608;-51
2024/04/06 06:39:37;;;;;;;10.00;9.40;;;;;;;20.19;52.56;146726.38;5132960;27;20200;-51
2024/04/06 06:42:04;;;;;;;10.07;9.48;;;;;;;21.44;49.43;147030.13;5132637;27;20620;-52
2024/04/06 06:44:30;;;;;;;9.70;9.10;;;;;;;22.33;46.40;147246.16;5132913;27;20211;-51
2024/04/06 06:46:56;;;;;;;10.35;9.75;;;;;;;23.36;43.67;147495.34;5132475;27;20201;-51
2024/04/06 06:49:23;;;;;;;10.38;9.48;;;;;;;24.29;42.52;147719.09;5132447;27;20493;-54
2024/04/06 06:51:49;;;;;;;9.88;9.20;;;;;;;24.85;41.13;147854.84;5132446;27;20511;-50
2024/04/06 06:54:15;;;;;;;10.68;9.98;;;;;;;25.10;40.59;147916.00;5132556;27;20633;-52
2024/04/06 06:56:41;;;;;;;10.70;10.10;;;;;;;25.54;39.94;148023.69;5132506;27;20196;-52
2024/04/06 06:59:07;;;;;;;10.65;9.95;;;;;;;25.67;40.14;148055.50;5132282;27;20197;-51
2024/04/06 07:01:33;;;;;;;10.90;10.18;;;;;;;25.44;40.26;147999.16;5131967;27;20399;-53
2024/04/06 07:03:59;;;;;;;10.98;10.30;;;;;;;24.90;41.08;147867.06;5131852;27;20403;-52
2024/04/06 07:06:26;;;;;;;10.77;10.18;;;;;;;25.07;40.74;147908.66;5132184;27;20703;-52
2024/04/06 07:08:53;;;;;;;11.07;10.38;;;;;;;24.79;40.99;147841.38;5132038;27;20248;-52
2024/04/06 07:11:18;;;;;;;10.98;10.23;;;;;;;24.33;40.94;147728.84;5131936;27;20780;-51
2024/04/06 07:13:44;;;;;;;10.00;9.30;;;;;;;24.03;42.47;147656.69;5131979;27;20228;-51
2024/04/06 07:16:11;;;;;;;10.68;9.98;;;;;;;24.22;41.75;147703.19;5132248;27;20241;-52
2024/04/06 07:18:39;;;;;;;10.30;9.73;;;;;;;25.23;40.53;147947.78;5131903;27;20200;-51
2024/04/06 07:21:07;;;;;;;11.07;10.30;;;;;;;26.07;38.76;148152.16;5131884;27;20400;-51
2024/04/06 07:23:35;;;;;;;11.07;10.38;;;;;;;25.97;37.08;148127.69;5131957;27;20801;-53
2024/04/06 07:26:00;;;;;;;10.50;9.80;;;;;;;25.90;37.74;148110.56;5132144;27;20208;-53
2024/04/06 07:28:26;;;;;;;11.50;10.55;;;;;;;26.26;36.70;148198.72;5131863;27;20204;-52
2024/04/06 07:30:52;;;;;;;11.13;10.43;;;;;;;27.16;36.70;148416.69;5131883;27;20493;-51
2024/04/06 07:33:18;;;;;;;10.40;9.80;;;;;;;26.18;36.54;148179.13;5131822;27;20212;-52
2024/04/06 07:35:45;;;;;;;10.80;10.10;;;;;;;26.29;37.15;148206.06;5130076;27;20595;-50
2024/04/06 07:38:11;;;;;;;9.85;9.25;;;;;;;26.24;37.45;148192.59;5131267;27;20199;-50
2024/04/06 07:40:38;;;;;;;11.50;10.70;;;;;;;25.76;38.14;148076.31;5131327;27;20677;-52
2024/04/06 07:43:04;;;;;;;11.07;10.48;;;;;;;25.36;39.29;147979.56;5131087;27;20200;-51
2024/04/06 07:45:31;;;;;;;10.35;9.65;;;;;;;25.00;40.47;147892.72;5131491;27;20200;-51
2024/04/06 07:47:57;;;;;;;11.07;10.38;;;;;;;24.75;40.74;147832.75;5131315;27;20200;-51
2024/04/06 07:50:23;;;;;;;10.90;10.20;;;;;;;24.82;40.84;147848.72;5131303;27;20778;-52
2024/04/06 07:52:49;;;;;;;10.82;10.10;;;;;;;24.80;39.81;147842.59;5131583;27;20204;-52
2024/04/06 07:55:16;;;;;;;10.40;9.80;;;;;;;25.88;38.42;148106.88;5131336;27;20200;-52
2024/04/06 07:57:43;;;;;;;11.48;10.77;;;;;;;27.03;36.55;148384.84;5131241;27;20233;-52
2024/04/06 08:00:11;;;;;;;11.77;10.98;;;;;;;28.17;34.53;148661.78;5131002;27;20245;-52
2024/04/06 08:02:36;;;;;;;11.43;10.73;;;;;;;28.91;33.24;148840.84;5130985;27;20261;-51
2024/04/06 08:05:03;;;;;;;11.35;10.60;;;;;;;28.85;34.38;148826.13;5131048;27;20609;-51
2024/04/06 08:07:28;;;;;;;11.25;10.65;;;;;;;29.21;33.76;148914.38;5131293;27;20237;-51
2024/04/06 08:09:58;;;;;;;12.10;11.30;;;;;;;29.71;32.20;149037.09;5130787;27;20229;-52
2024/04/06 08:12:24;;;;;;;11.27;10.57;;;;;;;31.75;29.41;149531.94;5130985;27;20257;-51
2024/04/06 08:14:51;;;;;;;12.18;11.48;;;;;;;34.05;27.23;150093.75;5130599;27;20615;-50
2024/04/06 08:17:17;;;;;;;11.55;10.75;;;;;;;36.10;25.98;150593.56;5130691;27;20206;-52
2024/04/06 08:19:43;;;;;;;11.70;11.00;;;;;;;36.68;24.99;150736.44;5130841;27;20200;-51
2024/04/06 08:22:09;;;;;;;12.25;11.40;;;;;;;36.91;24.67;150790.66;5130625;27;20197;-52
2024/04/06 08:24:35;;;;;;;11.57;10.77;;;;;;;38.16;23.23;151097.59;5130383;27;20256;-51
2024/04/06 08:27:02;;;;;;;12.02;11.23;;;;;;;39.36;22.16;151389.91;5130994;27;20227;-51
2024/04/06 08:29:29;;;;;;;11.95;11.25;;;;;;;39.66;21.57;151465.19;5130710;27;20564;-54
2024/04/06 08:31:55;;;;;;;12.40;11.50;;;;;;;39.99;21.46;151544.13;5130267;27;20273;-51
2024/04/06 08:34:22;;;;;;;12.95;11.80;;;;;;;41.29;21.28;151862.66;5130537;27;20200;-52
2024/04/06 08:36:47;;;;;;;10.95;10.07;;;;;;;41.62;20.87;151944.19;5130667;27;20196;-53
2024/04/06 08:39:13;;;;;;;11.02;10.40;;;;;;;41.81;20.84;151989.91;5130369;27;20204;-52
2024/04/06 08:41:40;;;;;;;11.70;11.00;;;;;;;40.22;21.29;151602.16;5130348;27;20200;-52
2024/04/06 08:44:12;;;;;;;11.85;10.90;;;;;;;39.35;22.11;151388.66;5130285;27;20208;-53
2024/04/06 08:46:39;;;;;;;11.95;11.25;;;;;;;38.61;22.53;151207.31;5130431;27;20211;-52
2024/04/06 08:49:09;;;;;;;12.02;11.32;;;;;;;37.63;23.54;150968.13;5130216;27;20230;-51
2024/04/06 08:51:35;;;;;;;11.90;11.23;;;;;;;38.03;22.96;151064.31;5129976;27;20220;-51
2024/04/06 08:54:02;;;;;;;11.30;10.50;;;;;;;38.49;22.25;151179.00;5130108;27;20364;-52
2024/04/06 08:56:28;;;;;;;11.43;10.73;;;;;;;39.81;20.73;151501.00;5130121;27;20200;-53
2024/04/06 08:58:54;;;;;;;11.90;11.20;;;;;;;40.38;20.03;151640.44;5129867;27;20287;-53
2024/04/06 09:01:20;;;;;;;11.32;10.73;;;;;;;41.74;19.65;151973.88;5130114;27;20238;-51
2024/04/06 09:03:46;;;;;;;11.30;10.70;;;;;;;42.64;18.26;152192.53;5130163;27;20204;-52
2024/04/06 09:06:16;;;;;;;11.40;10.70;;;;;;;42.68;17.87;152203.66;5130014;27;20204;-51
2024/04/06 09:08:43;;;;;;;11.70;11.00;;;;;;;43.91;18.18;152505.25;5130014;27;20208;-51
2024/04/06 09:11:12;;;;;;;11.25;10.65;;;;;;;43.26;17.78;152344.53;5129843;27;20264;-52
2024/04/06 09:13:38;;;;;;;11.63;10.93;;;;;;;43.09;18.10;152303.81;5129510;27;20699;-52
2024/04/06 09:16:05;;;;;;;11.65;11.00;;;;;;;42.52;18.93;152165.31;5129806;27;20728;-53
2024/04/06 09:18:32;;;;;;;10.93;10.32;;;;;;;42.29;18.70;152107.28;5129894;27;20762;-51
2024/04/06 09:20:57;;;;;;;12.02;11.32;;;;;;;41.32;18.95;151871.34;5129810;27;20203;-53
2024/04/06 09:23:25;;;;;;;11.77;11.10;;;;;;;39.24;19.85;151361.53;5129600;27;20192;-51
2024/04/06 09:25:57;;;;;;;11.75;11.15;;;;;;;40.28;20.31;151615.72;5129209;27;20196;-51
2024/04/06 09:28:25;;;;;;;11.70;11.10;;;;;;;40.45;19.04;151657.69;5129768;27;20277;-52
2024/04/06 09:30:56;;;;;;;11.63;10.82;;;;;;;41.29;19.21;151863.88;5129630;27;20277;-53
2024/04/06 09:33:23;;;;;;;11.38;10.77;;;;;;;41.79;18.77;151986.22;5129754;27;20564;-52
2024/04/06 09:35:50;;;;;;;11.40;10.60;;;;;;;41.76;18.40;151977.56;5129611;27;20224;-51
2024/04/06 09:38:17;;;;;;;11.18;10.57;;;;;;;41.97;17.61;152028.22;5129933;27;20481;-51
2024/04/06 09:40:46;;;;;;;11.65;10.75;;;;;;;42.51;17.36;152161.63;5130360;27;20245;-52
2024/04/06 09:43:13;;;;;;;11.60;10.93;;;;;;;42.71;16.47;152211.06;5129498;27;20210;-51
2024/04/06 09:45:39;;;;;;;11.55;10.95;;;;;;;41.81;17.78;151989.91;5129716;27;20339;-52
2024/04/06 09:48:08;;;;;;;11.38;10.77;;;;;;;41.76;17.75;151978.81;5129461;27;20714;-52
2024/04/06 09:50:36;;;;;;;11.40;10.70;;;;;;;41.52;17.64;151918.25;5129427;27;20200;-51
2024/04/06 09:53:03;;;;;;;11.45;10.85;;;;;;;41.74;17.71;151972.63;5129652;27;20628;-51
2024/04/06 09:55:30;;;;;;;11.68;10.88;;;;;;;42.43;17.41;152143.13;5129559;27;20203;-53
2024/04/06 09:57:58;;;;;;;11.60;10.90;;;;;;;41.34;17.32;151876.28;5129308;27;20199;-52
2024/04/06 10:00:23;;;;;;;12.30;11.50;;;;;;;40.26;18.90;151610.81;5129457;27;20207;-52
2024/04/06 10:02:51;;;;;;;12.57;11.77;;;;;;;38.38;19.03;151150.63;5127638;27;20189;-50
2024/04/06 10:05:16;;;;;;;13.05;12.25;;;;;;;36.01;21.99;150572.56;5129293;27;20196;-52
2024/04/06 10:07:48;;;;;;;11.98;11.38;;;;;;;34.12;22.31;150111.03;5129603;27;20725;-52
2024/04/06 10:10:14;;;;;;;12.63;11.82;;;;;;;32.25;23.21;149654.81;5128840;27;20261;-52
2024/04/06 10:12:45;;;;;;;12.68;11.77;;;;;;;30.69;23.83;149273.97;5128930;27;20744;-50
2024/04/06 10:15:13;;;;;;;12.32;11.68;;;;;;;30.20;23.88;149156.13;5129219;27;20236;-51
2024/04/06 10:17:45;;;;;;;12.63;11.75;;;;;;;29.74;23.57;149044.47;5129195;27;20208;-51
2024/04/06 10:20:13;;;;;;;12.23;11.55;;;;;;;28.88;24.51;148834.69;5129321;27;20296;-51
2024/04/06 10:22:50;;;;;;;12.82;12.13;;;;;;;28.03;25.61;148628.72;5129519;27;20279;-52
2024/04/06 10:25:17;;;;;;;12.93;11.95;;;;;;;27.73;24.75;148553.94;5129028;27;20207;-51
2024/04/06 10:27:44;;;;;;;13.27;12.27;;;;;;;27.40;26.12;148474.28;5129107;27;20659;-52
2024/04/06 10:30:10;;;;;;;12.90;12.00;;;;;;;27.19;26.72;148424.03;5129057;27;20193;-52
2024/04/06 10:32:38;;;;;;;12.48;11.70;;;;;;;27.00;26.68;148378.72;5128987;27;20285;-54
2024/04/06 10:35:04;;;;;;;12.55;11.77;;;;;;;27.02;28.00;148383.63;5129140;27;20596;-51
2024/04/06 10:37:31;;;;;;;12.30;11.60;;;;;;;27.01;27.60;148379.97;5130256;27;20200;-52
2024/04/06 10:39:56;;;;;;;12.60;11.85;;;;;;;26.74;27.22;148315.03;5132715;27;20204;-52
2024/04/06 10:42:26;;;;;;;12.10;11.30;;;;;;;26.46;25.91;148247.69;5132782;27;20690;-53
2024/04/06 10:44:52;;;;;;;11.75;11.05;;;;;;;26.15;27.48;148171.78;5132656;27;20204;-51
2024/04/06 10:47:18;;;;;;;11.15;10.55;;;;;;;26.18;27.75;148179.13;5132674;27;20284;-52
2024/04/06 10:49:46;;;;;;;11.60;11.00;;;;;;;26.20;28.64;148184.00;5133078;27;20196;-53
2024/04/06 10:52:13;;;;;;;11.57;10.90;;;;;;;26.03;28.76;148142.38;5132534;27;20311;-53
2024/04/06 10:54:38;;;;;;;11.80;11.13;;;;;;;25.99;28.50;148131.34;5132563;27;20205;-51
2024/04/06 10:57:05;;;;;;;11.82;11.02;;;;;;;25.99;27.94;148132.56;5132330;27;20668;-52
2024/04/06 10:59:31;;;;;;;11.80;11.10;;;;;;;26.14;26.95;148168.13;5132627;27;20206;-51
2024/04/06 11:01:57;;;;;;;12.02;11.00;;;;;;;26.05;27.45;148146.03;5132309;27;20204;-51
2024/04/06 11:04:23;;;;;;;11.43;10.77;;;;;;;25.94;27.12;148120.34;5132584;27;20193;-52
2024/04/06 11:06:51;;;;;;;11.20;10.60;;;;;;;26.02;28.42;148138.69;5132542;27;20211;-51
2024/04/06 11:09:17;;;;;;;11.70;11.00;;;;;;;26.10;27.73;148159.50;5132162;27;20273;-52
2024/04/06 11:11:44;;;;;;;11.35;10.75;;;;;;;26.08;28.54;148153.38;5132243;27;20315;-52